sensor_id;sensor_type;location;lat;lon;timestamp;temperature;humidity
71184;DHT22;58887;51.980;4.464;2024-03-29T00:01:10;10.43;66.99
71184;DHT22;58887;51.980;4.464;2024-03-29T00:03:36;10.56;66.69
71184;DHT22;58887;51.980;4.464;2024-03-29T00:06:01;10.45;66.75
71184;DHT22;58887;51.980;4.464;2024-03-29T00:08:27;10.59;66.57
71184;DHT22;58887;51.980;4.464;2024-03-29T00:10:53;10.56;66.30
71184;DHT22;58887;51.980;4.464;2024-03-29T00:13:18;10.69;66.11
71184;DHT22;58887;51.980;4.464;2024-03-29T00:15:45;10.64;66.13
71184;DHT22;58887;51.980;4.464;2024-03-29T00:18:11;10.50;66.43
71184;DHT22;58887;51.980;4.464;2024-03-29T00:20:36;10.53;66.45
71184;DHT22;58887;51.980;4.464;2024-03-29T00:23:02;10.53;66.15
71184;DHT22;58887;51.980;4.464;2024-03-29T00:25:27;10.59;66.04
71184;DHT22;58887;51.980;4.464;2024-03-29T00:27:53;10.53;66.10
71184;DHT22;58887;51.980;4.464;2024-03-29T00:30:18;10.69;65.49
71184;DHT22;58887;51.980;4.464;2024-03-29T00:32:43;10.57;65.87
71184;DHT22;58887;51.980;4.464;2024-03-29T00:35:09;10.57;65.72
71184;DHT22;58887;51.980;4.464;2024-03-29T00:37:34;10.63;65.37
71184;DHT22;58887;51.980;4.464;2024-03-29T00:40:00;10.74;65.26
71184;DHT22;58887;51.980;4.464;2024-03-29T00:42:26;10.69;65.33
71184;DHT22;58887;51.980;4.464;2024-03-29T00:44:51;10.69;65.36
71184;DHT22;58887;51.980;4.464;2024-03-29T00:47:17;10.67;65.27
71184;DHT22;58887;51.980;4.464;2024-03-29T00:49:43;10.73;65.08
71184;DHT22;58887;51.980;4.464;2024-03-29T00:52:08;10.73;65.03
71184;DHT22;58887;51.980;4.464;2024-03-29T00:54:34;10.70;65.14
71184;DHT22;58887;51.980;4.464;2024-03-29T00:56:59;10.81;64.69
71184;DHT22;58887;51.980;4.464;2024-03-29T00:59:25;10.79;64.83
71184;DHT22;58887;51.980;4.464;2024-03-29T01:01:50;10.81;64.66
71184;DHT22;58887;51.980;4.464;2024-03-29T01:04:16;10.81;64.57
71184;DHT22;58887;51.980;4.464;2024-03-29T01:06:42;10.76;64.82
71184;DHT22;58887;51.980;4.464;2024-03-29T01:09:08;10.69;65.32
71184;DHT22;58887;51.980;4.464;2024-03-29T01:11:37;10.69;64.83
71184;DHT22;58887;51.980;4.464;2024-03-29T01:14:04;10.79;64.51
71184;DHT22;58887;51.980;4.464;2024-03-29T01:16:29;10.83;64.53
71184;DHT22;58887;51.980;4.464;2024-03-29T01:18:56;10.85;64.48
71184;DHT22;58887;51.980;4.464;2024-03-29T01:21:22;10.85;64.60
71184;DHT22;58887;51.980;4.464;2024-03-29T01:23:47;10.85;64.37
71184;DHT22;58887;51.980;4.464;2024-03-29T01:26:13;10.89;64.36
71184;DHT22;58887;51.980;4.464;2024-03-29T01:28:39;10.76;64.64
71184;DHT22;58887;51.980;4.464;2024-03-29T01:31:05;10.81;64.79
71184;DHT22;58887;51.980;4.464;2024-03-29T01:33:31;10.83;64.70
71184;DHT22;58887;51.980;4.464;2024-03-29T01:36:03;10.85;64.42
71184;DHT22;58887;51.980;4.464;2024-03-29T01:38:29;10.83;64.41
71184;DHT22;58887;51.980;4.464;2024-03-29T01:40:55;10.76;64.65
71184;DHT22;58887;51.980;4.464;2024-03-29T01:43:20;10.81;64.42
71184;DHT22;58887;51.980;4.464;2024-03-29T01:45:48;10.89;64.37
71184;DHT22;58887;51.980;4.464;2024-03-29T01:48:17;10.81;64.45
71184;DHT22;58887;51.980;4.464;2024-03-29T01:50:44;10.81;64.29
71184;DHT22;58887;51.980;4.464;2024-03-29T01:53:11;10.81;64.26
71184;DHT22;58887;51.980;4.464;2024-03-29T01:55:37;10.81;63.76
71184;DHT22;58887;51.980;4.464;2024-03-29T01:58:04;10.80;64.03
71184;DHT22;58887;51.980;4.464;2024-03-29T02:00:33;10.83;63.86
71184;DHT22;58887;51.980;4.464;2024-03-29T02:03:01;10.70;64.23
71184;DHT22;58887;51.980;4.464;2024-03-29T02:05:30;10.67;64.22
71184;DHT22;58887;51.980;4.464;2024-03-29T02:07:56;10.85;63.81
71184;DHT22;58887;51.980;4.464;2024-03-29T02:10:23;10.81;63.75
71184;DHT22;58887;51.980;4.464;2024-03-29T02:12:48;10.83;63.75
71184;DHT22;58887;51.980;4.464;2024-03-29T02:15:15;10.77;63.92
71184;DHT22;58887;51.980;4.464;2024-03-29T02:17:42;10.70;64.05
71184;DHT22;58887;51.980;4.464;2024-03-29T02:20:08;10.80;63.96
71184;DHT22;58887;51.980;4.464;2024-03-29T02:22:40;10.77;64.05
71184;DHT22;58887;51.980;4.464;2024-03-29T02:25:08;10.62;64.27
71184;DHT22;58887;51.980;4.464;2024-03-29T02:27:34;10.66;64.54
71184;DHT22;58887;51.980;4.464;2024-03-29T02:30:00;10.50;64.83
71184;DHT22;58887;51.980;4.464;2024-03-29T02:32:25;10.64;64.62
71184;DHT22;58887;51.980;4.464;2024-03-29T02:34:53;10.66;64.45
71184;DHT22;58887;51.980;4.464;2024-03-29T02:37:18;10.64;64.52
71184;DHT22;58887;51.980;4.464;2024-03-29T02:39:44;10.70;64.23
71184;DHT22;58887;51.980;4.464;2024-03-29T02:42:09;10.55;64.50
71184;DHT22;58887;51.980;4.464;2024-03-29T02:44:35;10.60;64.72
71184;DHT22;58887;51.980;4.464;2024-03-29T02:47:00;10.60;64.60
71184;DHT22;58887;51.980;4.464;2024-03-29T02:49:26;10.60;64.23
71184;DHT22;58887;51.980;4.464;2024-03-29T02:51:51;10.64;64.35
71184;DHT22;58887;51.980;4.464;2024-03-29T02:54:18;10.53;64.73
71184;DHT22;58887;51.980;4.464;2024-03-29T02:56:44;10.60;64.71
71184;DHT22;58887;51.980;4.464;2024-03-29T02:59:09;10.53;65.00
71184;DHT22;58887;51.980;4.464;2024-03-29T03:01:35;10.57;64.80
71184;DHT22;58887;51.980;4.464;2024-03-29T03:04:00;10.45;64.88
71184;DHT22;58887;51.980;4.464;2024-03-29T03:06:26;10.60;64.43
71184;DHT22;58887;51.980;4.464;2024-03-29T03:08:51;10.57;64.17
71184;DHT22;58887;51.980;4.464;2024-03-29T03:11:35;10.62;64.25
71184;DHT22;58887;51.980;4.464;2024-03-29T03:14:01;10.62;64.06
71184;DHT22;58887;51.980;4.464;2024-03-29T03:16:26;10.66;63.76
71184;DHT22;58887;51.980;4.464;2024-03-29T03:18:52;10.71;63.45
71184;DHT22;58887;51.980;4.464;2024-03-29T03:21:17;10.63;63.99
71184;DHT22;58887;51.980;4.464;2024-03-29T03:23:43;10.53;63.99
71184;DHT22;58887;51.980;4.464;2024-03-29T03:26:08;10.52;64.12
71184;DHT22;58887;51.980;4.464;2024-03-29T03:28:34;10.56;64.17
71184;DHT22;58887;51.980;4.464;2024-03-29T03:31:00;10.62;63.74
71184;DHT22;58887;51.980;4.464;2024-03-29T03:33:26;10.52;64.32
71184;DHT22;58887;51.980;4.464;2024-03-29T03:35:51;10.56;64.08
71184;DHT22;58887;51.980;4.464;2024-03-29T03:38:17;10.60;63.90
71184;DHT22;58887;51.980;4.464;2024-03-29T03:40:42;10.66;64.10
71184;DHT22;58887;51.980;4.464;2024-03-29T03:43:08;10.69;63.95
71184;DHT22;58887;51.980;4.464;2024-03-29T03:45:35;10.50;64.32
71184;DHT22;58887;51.980;4.464;2024-03-29T03:48:03;10.50;64.55
71184;DHT22;58887;51.980;4.464;2024-03-29T03:50:28;10.57;64.30
71184;DHT22;58887;51.980;4.464;2024-03-29T03:52:54;10.38;64.88
71184;DHT22;58887;51.980;4.464;2024-03-29T03:55:19;10.52;64.84
71184;DHT22;58887;51.980;4.464;2024-03-29T03:57:45;10.41;65.10
71184;DHT22;58887;51.980;4.464;2024-03-29T04:00:11;10.45;64.92
71184;DHT22;58887;51.980;4.464;2024-03-29T04:02:36;10.53;65.00
71184;DHT22;58887;51.980;4.464;2024-03-29T04:05:02;10.48;65.00
71184;DHT22;58887;51.980;4.464;2024-03-29T04:07:27;10.46;65.15
71184;DHT22;58887;51.980;4.464;2024-03-29T04:09:53;10.38;65.25
71184;DHT22;58887;51.980;4.464;2024-03-29T04:12:18;10.43;65.51
71184;DHT22;58887;51.980;4.464;2024-03-29T04:14:44;10.43;65.31
71184;DHT22;58887;51.980;4.464;2024-03-29T04:17:09;10.48;65.33
71184;DHT22;58887;51.980;4.464;2024-03-29T04:19:35;10.46;65.30
71184;DHT22;58887;51.980;4.464;2024-03-29T04:22:01;10.42;65.34
71184;DHT22;58887;51.980;4.464;2024-03-29T04:24:28;10.26;65.80
71184;DHT22;58887;51.980;4.464;2024-03-29T04:26:53;10.42;65.57
71184;DHT22;58887;51.980;4.464;2024-03-29T04:29:19;10.22;66.25
71184;DHT22;58887;51.980;4.464;2024-03-29T04:31:47;10.36;65.97
71184;DHT22;58887;51.980;4.464;2024-03-29T04:34:13;10.31;65.96
71184;DHT22;58887;51.980;4.464;2024-03-29T04:36:38;10.33;66.51
71184;DHT22;58887;51.980;4.464;2024-03-29T04:39:04;10.46;66.26
71184;DHT22;58887;51.980;4.464;2024-03-29T04:41:29;10.26;66.36
71184;DHT22;58887;51.980;4.464;2024-03-29T04:44:00;10.13;67.06
71184;DHT22;58887;51.980;4.464;2024-03-29T04:46:29;10.03;67.70
71184;DHT22;58887;51.980;4.464;2024-03-29T04:48:55;10.18;67.42
71184;DHT22;58887;51.980;4.464;2024-03-29T04:51:20;9.91;68.41
71184;DHT22;58887;51.980;4.464;2024-03-29T04:53:46;10.11;68.26
71184;DHT22;58887;51.980;4.464;2024-03-29T04:56:12;10.02;68.58
71184;DHT22;58887;51.980;4.464;2024-03-29T04:58:37;9.84;69.34
71184;DHT22;58887;51.980;4.464;2024-03-29T05:01:03;9.80;69.72
71184;DHT22;58887;51.980;4.464;2024-03-29T05:03:28;9.87;69.84
71184;DHT22;58887;51.980;4.464;2024-03-29T05:05:54;9.94;69.66
71184;DHT22;58887;51.980;4.464;2024-03-29T05:08:20;9.82;69.84
71184;DHT22;58887;51.980;4.464;2024-03-29T05:10:49;9.71;70.46
71184;DHT22;58887;51.980;4.464;2024-03-29T05:13:16;9.71;70.47
71184;DHT22;58887;51.980;4.464;2024-03-29T05:15:41;9.71;70.52
71184;DHT22;58887;51.980;4.464;2024-03-29T05:18:07;9.60;70.91
71184;DHT22;58887;51.980;4.464;2024-03-29T05:20:33;9.57;71.31
71184;DHT22;58887;51.980;4.464;2024-03-29T05:22:58;9.53;71.75
71184;DHT22;58887;51.980;4.464;2024-03-29T05:25:24;9.39;72.23
71184;DHT22;58887;51.980;4.464;2024-03-29T05:27:50;9.44;72.32
71184;DHT22;58887;51.980;4.464;2024-03-29T05:30:16;9.43;72.94
71184;DHT22;58887;51.980;4.464;2024-03-29T05:32:42;9.32;73.52
71184;DHT22;58887;51.980;4.464;2024-03-29T05:35:08;9.27;73.98
71184;DHT22;58887;51.980;4.464;2024-03-29T05:37:35;9.27;73.94
71184;DHT22;58887;51.980;4.464;2024-03-29T05:40:01;9.40;73.92
71184;DHT22;58887;51.980;4.464;2024-03-29T05:42:31;9.27;74.26
71184;DHT22;58887;51.980;4.464;2024-03-29T05:44:58;9.20;74.51
71184;DHT22;58887;51.980;4.464;2024-03-29T05:47:23;9.20;74.76
71184;DHT22;58887;51.980;4.464;2024-03-29T05:49:49;9.11;74.98
71184;DHT22;58887;51.980;4.464;2024-03-29T05:52:16;9.16;74.90
71184;DHT22;58887;51.980;4.464;2024-03-29T05:54:45;9.29;74.80
71184;DHT22;58887;51.980;4.464;2024-03-29T05:57:11;9.22;75.10
71184;DHT22;58887;51.980;4.464;2024-03-29T05:59:37;9.29;74.86
71184;DHT22;58887;51.980;4.464;2024-03-29T06:02:03;9.29;75.08
71184;DHT22;58887;51.980;4.464;2024-03-29T06:04:29;9.44;74.68
71184;DHT22;58887;51.980;4.464;2024-03-29T06:07:03;9.39;74.67
71184;DHT22;58887;51.980;4.464;2024-03-29T06:09:30;9.46;74.70
71184;DHT22;58887;51.980;4.464;2024-03-29T06:11:56;9.43;74.93
71184;DHT22;58887;51.980;4.464;2024-03-29T06:14:25;9.44;75.07
71184;DHT22;58887;51.980;4.464;2024-03-29T06:17:17;9.30;75.57
71184;DHT22;58887;51.980;4.464;2024-03-29T06:19:53;9.36;75.70
71184;DHT22;58887;51.980;4.464;2024-03-29T06:22:23;9.42;75.71
71184;DHT22;58887;51.980;4.464;2024-03-29T06:24:50;9.39;75.95
71184;DHT22;58887;51.980;4.464;2024-03-29T06:27:20;9.40;76.21
71184;DHT22;58887;51.980;4.464;2024-03-29T06:29:51;9.42;76.31
71184;DHT22;58887;51.980;4.464;2024-03-29T06:32:17;9.47;76.28
71184;DHT22;58887;51.980;4.464;2024-03-29T06:34:46;9.24;77.34
71184;DHT22;58887;51.980;4.464;2024-03-29T06:37:12;9.23;77.57
71184;DHT22;58887;51.980;4.464;2024-03-29T06:39:37;9.42;77.51
71184;DHT22;58887;51.980;4.464;2024-03-29T06:42:03;9.44;77.38
71184;DHT22;58887;51.980;4.464;2024-03-29T06:44:29;9.34;77.54
71184;DHT22;58887;51.980;4.464;2024-03-29T06:46:54;9.43;77.93
71184;DHT22;58887;51.980;4.464;2024-03-29T06:49:20;9.69;77.27
71184;DHT22;58887;51.980;4.464;2024-03-29T06:51:46;9.65;77.01
71184;DHT22;58887;51.980;4.464;2024-03-29T06:54:11;9.74;77.10
71184;DHT22;58887;51.980;4.464;2024-03-29T06:56:37;9.51;76.98
71184;DHT22;58887;51.980;4.464;2024-03-29T06:59:04;9.58;77.21
71184;DHT22;58887;51.980;4.464;2024-03-29T07:01:30;9.60;76.77
71184;DHT22;58887;51.980;4.464;2024-03-29T07:03:56;9.67;76.74
71184;DHT22;58887;51.980;4.464;2024-03-29T07:06:21;9.43;76.81
71184;DHT22;58887;51.980;4.464;2024-03-29T07:08:47;9.69;76.59
71184;DHT22;58887;51.980;4.464;2024-03-29T07:11:13;9.71;76.77
71184;DHT22;58887;51.980;4.464;2024-03-29T07:13:39;9.99;75.97
71184;DHT22;58887;51.980;4.464;2024-03-29T07:16:04;10.18;75.38
71184;DHT22;58887;51.980;4.464;2024-03-29T07:18:32;10.25;74.62
71184;DHT22;58887;51.980;4.464;2024-03-29T07:20:58;10.05;75.02
71184;DHT22;58887;51.980;4.464;2024-03-29T07:23:23;9.81;75.84
71184;DHT22;58887;51.980;4.464;2024-03-29T07:26:02;9.78;76.28
71184;DHT22;58887;51.980;4.464;2024-03-29T07:28:29;9.85;76.60
71184;DHT22;58887;51.980;4.464;2024-03-29T07:30:55;9.92;76.27
71184;DHT22;58887;51.980;4.464;2024-03-29T07:33:22;10.05;76.02
71184;DHT22;58887;51.980;4.464;2024-03-29T07:35:52;9.98;76.16
71184;DHT22;58887;51.980;4.464;2024-03-29T07:38:17;10.25;75.64
71184;DHT22;58887;51.980;4.464;2024-03-29T07:40:46;10.16;75.09
71184;DHT22;58887;51.980;4.464;2024-03-29T07:43:12;10.39;75.35
71184;DHT22;58887;51.980;4.464;2024-03-29T07:45:42;10.62;74.04
71184;DHT22;58887;51.980;4.464;2024-03-29T07:48:17;10.49;74.68
71184;DHT22;58887;51.980;4.464;2024-03-29T07:50:44;10.79;74.27
71184;DHT22;58887;51.980;4.464;2024-03-29T07:53:10;10.43;74.77
71184;DHT22;58887;51.980;4.464;2024-03-29T07:55:38;10.62;74.44
71184;DHT22;58887;51.980;4.464;2024-03-29T07:58:04;10.83;74.01
71184;DHT22;58887;51.980;4.464;2024-03-29T08:00:33;11.03;74.08
71184;DHT22;58887;51.980;4.464;2024-03-29T08:03:00;10.87;73.71
71184;DHT22;58887;51.980;4.464;2024-03-29T08:05:28;11.00;73.74
71184;DHT22;58887;51.980;4.464;2024-03-29T08:07:54;10.84;73.93
71184;DHT22;58887;51.980;4.464;2024-03-29T08:10:20;10.85;73.99
71184;DHT22;58887;51.980;4.464;2024-03-29T08:12:45;10.85;73.99
71184;DHT22;58887;51.980;4.464;2024-03-29T08:15:11;10.93;73.53
71184;DHT22;58887;51.980;4.464;2024-03-29T08:17:36;11.10;73.09
71184;DHT22;58887;51.980;4.464;2024-03-29T08:20:03;11.20;72.67
71184;DHT22;58887;51.980;4.464;2024-03-29T08:22:28;11.12;72.76
71184;DHT22;58887;51.980;4.464;2024-03-29T08:24:55;11.55;71.94
71184;DHT22;58887;51.980;4.464;2024-03-29T08:27:20;11.96;70.62
71184;DHT22;58887;51.980;4.464;2024-03-29T08:29:46;12.04;70.13
71184;DHT22;58887;51.980;4.464;2024-03-29T08:32:14;11.62;70.58
71184;DHT22;58887;51.980;4.464;2024-03-29T08:34:40;11.31;71.43
71184;DHT22;58887;51.980;4.464;2024-03-29T08:37:05;11.57;71.97
71184;DHT22;58887;51.980;4.464;2024-03-29T08:39:31;11.66;71.75
71184;DHT22;58887;51.980;4.464;2024-03-29T08:42:00;11.58;71.59
71184;DHT22;58887;51.980;4.464;2024-03-29T08:44:33;11.36;71.80
71184;DHT22;58887;51.980;4.464;2024-03-29T08:46:59;11.27;72.73
71184;DHT22;58887;51.980;4.464;2024-03-29T08:49:28;11.08;72.79
71184;DHT22;58887;51.980;4.464;2024-03-29T08:51:54;11.21;73.30
71184;DHT22;58887;51.980;4.464;2024-03-29T08:54:20;11.49;72.76
71184;DHT22;58887;51.980;4.464;2024-03-29T08:56:47;11.52;72.44
71184;DHT22;58887;51.980;4.464;2024-03-29T08:59:12;12.01;71.38
71184;DHT22;58887;51.980;4.464;2024-03-29T09:01:44;12.10;70.73
71184;DHT22;58887;51.980;4.464;2024-03-29T09:04:09;11.91;71.27
71184;DHT22;58887;51.980;4.464;2024-03-29T09:06:38;11.72;71.65
71184;DHT22;58887;51.980;4.464;2024-03-29T09:09:05;11.58;71.80
71184;DHT22;58887;51.980;4.464;2024-03-29T09:11:31;11.75;71.54
71184;DHT22;58887;51.980;4.464;2024-03-29T09:13:57;11.59;71.90
71184;DHT22;58887;51.980;4.464;2024-03-29T09:16:27;11.65;72.10
71184;DHT22;58887;51.980;4.464;2024-03-29T09:18:54;12.12;71.37
71184;DHT22;58887;51.980;4.464;2024-03-29T09:21:20;12.21;70.37
71184;DHT22;58887;51.980;4.464;2024-03-29T09:23:46;12.00;71.07
71184;DHT22;58887;51.980;4.464;2024-03-29T09:26:12;11.97;70.57
71184;DHT22;58887;51.980;4.464;2024-03-29T09:28:39;11.83;70.93
71184;DHT22;58887;51.980;4.464;2024-03-29T09:31:05;12.19;70.79
71184;DHT22;58887;51.980;4.464;2024-03-29T09:33:31;12.14;70.31
71184;DHT22;58887;51.980;4.464;2024-03-29T09:35:56;12.10;70.26
71184;DHT22;58887;51.980;4.464;2024-03-29T09:38:25;12.13;71.01
71184;DHT22;58887;51.980;4.464;2024-03-29T09:43:25;12.23;71.30
71184;DHT22;58887;51.980;4.464;2024-03-29T09:45:53;12.17;71.24
71184;DHT22;58887;51.980;4.464;2024-03-29T09:48:21;11.93;71.88
71184;DHT22;58887;51.980;4.464;2024-03-29T09:50:48;12.06;71.85
71184;DHT22;58887;51.980;4.464;2024-03-29T09:53:17;11.85;71.95
71184;DHT22;58887;51.980;4.464;2024-03-29T09:55:46;11.59;72.68
71184;DHT22;58887;51.980;4.464;2024-03-29T09:58:12;11.54;72.92
71184;DHT22;58887;51.980;4.464;2024-03-29T10:00:38;11.58;73.59
71184;DHT22;58887;51.980;4.464;2024-03-29T10:03:05;11.90;72.99
71184;DHT22;58887;51.980;4.464;2024-03-29T10:05:33;12.42;71.58
71184;DHT22;58887;51.980;4.464;2024-03-29T10:07:59;12.77;69.73
71184;DHT22;58887;51.980;4.464;2024-03-29T10:10:32;12.61;69.83
71184;DHT22;58887;51.980;4.464;2024-03-29T10:12:57;12.30;70.40
71184;DHT22;58887;51.980;4.464;2024-03-29T10:15:24;12.19;71.01
71184;DHT22;58887;51.980;4.464;2024-03-29T10:17:51;12.64;70.61
71184;DHT22;58887;51.980;4.464;2024-03-29T10:20:18;12.74;69.46
71184;DHT22;58887;51.980;4.464;2024-03-29T10:22:45;12.78;69.30
71184;DHT22;58887;51.980;4.464;2024-03-29T10:25:16;12.74;69.22
71184;DHT22;58887;51.980;4.464;2024-03-29T10:27:42;13.03;68.15
71184;DHT22;58887;51.980;4.464;2024-03-29T10:30:09;13.10;67.74
71184;DHT22;58887;51.980;4.464;2024-03-29T10:32:41;13.67;66.87
71184;DHT22;58887;51.980;4.464;2024-03-29T10:35:07;14.59;62.97
71184;DHT22;58887;51.980;4.464;2024-03-29T10:37:33;15.08;61.17
71184;DHT22;58887;51.980;4.464;2024-03-29T10:40:09;15.14;60.62
71184;DHT22;58887;51.980;4.464;2024-03-29T10:42:37;15.21;60.63
71184;DHT22;58887;51.980;4.464;2024-03-29T10:45:05;15.41;59.82
71184;DHT22;58887;51.980;4.464;2024-03-29T10:47:32;14.81;60.55
71184;DHT22;58887;51.980;4.464;2024-03-29T10:49:58;14.49;61.10
71184;DHT22;58887;51.980;4.464;2024-03-29T10:52:27;14.25;62.15
71184;DHT22;58887;51.980;4.464;2024-03-29T10:54:53;14.42;62.68
71184;DHT22;58887;51.980;4.464;2024-03-29T10:57:25;15.18;61.05
71184;DHT22;58887;51.980;4.464;2024-03-29T11:00:03;15.56;59.76
71184;DHT22;58887;51.980;4.464;2024-03-29T11:02:39;15.36;60.13
71184;DHT22;58887;51.980;4.464;2024-03-29T11:05:10;15.24;60.05
71184;DHT22;58887;51.980;4.464;2024-03-29T11:07:40;14.45;62.06
71184;DHT22;58887;51.980;4.464;2024-03-29T11:10:20;15.30;61.15
71184;DHT22;58887;51.980;4.464;2024-03-29T11:13:05;15.15;60.50
71184;DHT22;58887;51.980;4.464;2024-03-29T11:15:40;14.97;59.79
71184;DHT22;58887;51.980;4.464;2024-03-29T11:18:08;14.95;59.70
71184;DHT22;58887;51.980;4.464;2024-03-29T11:20:35;14.73;59.99
71184;DHT22;58887;51.980;4.464;2024-03-29T11:23:14;14.01;62.27
71184;DHT22;58887;51.980;4.464;2024-03-29T11:25:42;14.80;60.21
71184;DHT22;58887;51.980;4.464;2024-03-29T11:28:12;16.51;56.79
71184;DHT22;58887;51.980;4.464;2024-03-29T11:30:47;16.95;54.83
71184;DHT22;58887;51.980;4.464;2024-03-29T11:33:33;15.93;57.64
71184;DHT22;58887;51.980;4.464;2024-03-29T11:36:09;15.14;59.02
71184;DHT22;58887;51.980;4.464;2024-03-29T11:38:36;15.73;57.74
71184;DHT22;58887;51.980;4.464;2024-03-29T11:41:22;16.71;55.34
71184;DHT22;58887;51.980;4.464;2024-03-29T11:43:55;17.50;53.37
71184;DHT22;58887;51.980;4.464;2024-03-29T11:46:23;16.88;54.03
71184;DHT22;58887;51.980;4.464;2024-03-29T11:48:49;16.71;56.28
71184;DHT22;58887;51.980;4.464;2024-03-29T11:51:18;16.06;55.54
71184;DHT22;58887;51.980;4.464;2024-03-29T11:53:46;16.16;55.82
71184;DHT22;58887;51.980;4.464;2024-03-29T11:56:11;15.89;57.14
71184;DHT22;58887;51.980;4.464;2024-03-29T11:58:38;15.52;58.86
71184;DHT22;58887;51.980;4.464;2024-03-29T12:01:07;15.87;57.26
71184;DHT22;58887;51.980;4.464;2024-03-29T12:03:39;16.79;55.80
71184;DHT22;58887;51.980;4.464;2024-03-29T12:06:06;16.17;56.96
71184;DHT22;58887;51.980;4.464;2024-03-29T12:08:33;15.52;58.68
71184;DHT22;58887;51.980;4.464;2024-03-29T12:11:01;15.94;58.54
71184;DHT22;58887;51.980;4.464;2024-03-29T12:13:27;16.33;57.66
71184;DHT22;58887;51.980;4.464;2024-03-29T12:15:53;16.16;57.07
71184;DHT22;58887;51.980;4.464;2024-03-29T12:18:21;16.21;56.46
71184;DHT22;58887;51.980;4.464;2024-03-29T12:20:48;16.41;57.07
71184;DHT22;58887;51.980;4.464;2024-03-29T12:23:17;16.13;57.12
71184;DHT22;58887;51.980;4.464;2024-03-29T12:25:43;15.58;58.77
71184;DHT22;58887;51.980;4.464;2024-03-29T12:28:10;15.38;58.73
71184;DHT22;58887;51.980;4.464;2024-03-29T12:30:36;15.41;58.92
71184;DHT22;58887;51.980;4.464;2024-03-29T12:33:07;15.94;57.20
71184;DHT22;58887;51.980;4.464;2024-03-29T12:35:34;16.14;57.31
71184;DHT22;58887;51.980;4.464;2024-03-29T12:38:01;16.52;55.89
71184;DHT22;58887;51.980;4.464;2024-03-29T12:40:30;16.99;53.08
71184;DHT22;58887;51.980;4.464;2024-03-29T12:43:05;16.68;53.94
71184;DHT22;58887;51.980;4.464;2024-03-29T12:45:32;16.83;54.16
71184;DHT22;58887;51.980;4.464;2024-03-29T12:47:58;16.83;53.64
71184;DHT22;58887;51.980;4.464;2024-03-29T12:50:32;17.50;53.18
71184;DHT22;58887;51.980;4.464;2024-03-29T12:53:06;18.28;51.62
71184;DHT22;58887;51.980;4.464;2024-03-29T12:55:32;18.40;50.54
71184;DHT22;58887;51.980;4.464;2024-03-29T12:58:04;18.96;48.77
71184;DHT22;58887;51.980;4.464;2024-03-29T13:00:33;18.08;49.72
71184;DHT22;58887;51.980;4.464;2024-03-29T13:02:59;17.74;49.64
71184;DHT22;58887;51.980;4.464;2024-03-29T13:05:24;17.19;51.80
71184;DHT22;58887;51.980;4.464;2024-03-29T13:07:50;17.57;51.47
71184;DHT22;58887;51.980;4.464;2024-03-29T13:10:16;18.02;49.99
71184;DHT22;58887;51.980;4.464;2024-03-29T13:12:48;18.16;50.49
71184;DHT22;58887;51.980;4.464;2024-03-29T13:15:27;18.00;50.59
71184;DHT22;58887;51.980;4.464;2024-03-29T13:17:55;18.42;48.24
71184;DHT22;58887;51.980;4.464;2024-03-29T13:20:22;19.04;47.01
71184;DHT22;58887;51.980;4.464;2024-03-29T13:22:49;18.56;47.42
71184;DHT22;58887;51.980;4.464;2024-03-29T13:25:21;18.50;48.27
71184;DHT22;58887;51.980;4.464;2024-03-29T13:27:51;18.36;48.69
71184;DHT22;58887;51.980;4.464;2024-03-29T13:30:25;18.79;47.78
71184;DHT22;58887;51.980;4.464;2024-03-29T13:32:51;17.75;49.56
71184;DHT22;58887;51.980;4.464;2024-03-29T13:35:18;16.99;50.19
71184;DHT22;58887;51.980;4.464;2024-03-29T13:37:48;16.33;52.60
71184;DHT22;58887;51.980;4.464;2024-03-29T13:40:15;16.45;52.45
71184;DHT22;58887;51.980;4.464;2024-03-29T13:42:41;16.64;52.81
71184;DHT22;58887;51.980;4.464;2024-03-29T13:45:08;17.06;52.85
71184;DHT22;58887;51.980;4.464;2024-03-29T13:47:40;16.78;52.55
71184;DHT22;58887;51.980;4.464;2024-03-29T13:50:07;16.43;52.95
71184;DHT22;58887;51.980;4.464;2024-03-29T13:52:33;17.06;51.25
71184;DHT22;58887;51.980;4.464;2024-03-29T13:54:59;17.03;51.88
71184;DHT22;58887;51.980;4.464;2024-03-29T13:57:25;17.18;51.91
71184;DHT22;58887;51.980;4.464;2024-03-29T13:59:51;17.29;51.94
71184;DHT22;58887;51.980;4.464;2024-03-29T14:02:18;16.68;52.72
71184;DHT22;58887;51.980;4.464;2024-03-29T14:04:45;16.38;54.14
71184;DHT22;58887;51.980;4.464;2024-03-29T14:07:12;16.38;52.85
71184;DHT22;58887;51.980;4.464;2024-03-29T14:09:41;16.41;52.64
71184;DHT22;58887;51.980;4.464;2024-03-29T14:12:07;16.24;52.47
71184;DHT22;58887;51.980;4.464;2024-03-29T14:14:33;16.21;51.40
71184;DHT22;58887;51.980;4.464;2024-03-29T14:17:00;15.82;53.47
71184;DHT22;58887;51.980;4.464;2024-03-29T14:19:40;15.93;52.89
71184;DHT22;58887;51.980;4.464;2024-03-29T14:22:07;15.96;53.33
71184;DHT22;58887;51.980;4.464;2024-03-29T14:24:33;16.31;53.41
71184;DHT22;58887;51.980;4.464;2024-03-29T14:27:03;16.52;52.78
71184;DHT22;58887;51.980;4.464;2024-03-29T14:29:29;16.28;53.33
71184;DHT22;58887;51.980;4.464;2024-03-29T14:31:55;15.79;54.61
71184;DHT22;58887;51.980;4.464;2024-03-29T14:34:21;16.09;52.48
71184;DHT22;58887;51.980;4.464;2024-03-29T14:36:47;16.04;51.95
71184;DHT22;58887;51.980;4.464;2024-03-29T14:39:13;16.27;52.66
71184;DHT22;58887;51.980;4.464;2024-03-29T14:41:39;16.27;52.12
71184;DHT22;58887;51.980;4.464;2024-03-29T14:44:09;16.13;51.82
71184;DHT22;58887;51.980;4.464;2024-03-29T14:46:35;15.55;52.93
71184;DHT22;58887;51.980;4.464;2024-03-29T14:49:02;15.76;52.99
71184;DHT22;58887;51.980;4.464;2024-03-29T14:51:35;16.09;52.46
71184;DHT22;58887;51.980;4.464;2024-03-29T14:54:01;15.89;51.78
71184;DHT22;58887;51.980;4.464;2024-03-29T14:56:33;16.12;51.34
71184;DHT22;58887;51.980;4.464;2024-03-29T14:59:01;16.00;50.82
71184;DHT22;58887;51.980;4.464;2024-03-29T15:01:27;15.86;51.84
71184;DHT22;58887;51.980;4.464;2024-03-29T15:03:52;15.35;53.83
71184;DHT22;58887;51.980;4.464;2024-03-29T15:06:19;15.04;55.29
71184;DHT22;58887;51.980;4.464;2024-03-29T15:08:46;15.25;54.86
71184;DHT22;58887;51.980;4.464;2024-03-29T15:11:11;15.31;54.44
71184;DHT22;58887;51.980;4.464;2024-03-29T15:13:37;15.48;54.85
71184;DHT22;58887;51.980;4.464;2024-03-29T15:16:02;15.58;54.41
71184;DHT22;58887;51.980;4.464;2024-03-29T15:18:28;15.85;54.35
71184;DHT22;58887;51.980;4.464;2024-03-29T15:20:55;15.65;54.22
71184;DHT22;58887;51.980;4.464;2024-03-29T15:23:21;15.79;53.73
71184;DHT22;58887;51.980;4.464;2024-03-29T15:25:50;15.73;52.08
71184;DHT22;58887;51.980;4.464;2024-03-29T15:28:17;15.70;52.74
71184;DHT22;58887;51.980;4.464;2024-03-29T15:30:43;15.85;52.47
71184;DHT22;58887;51.980;4.464;2024-03-29T15:33:17;16.30;52.29
71184;DHT22;58887;51.980;4.464;2024-03-29T15:35:42;16.21;51.85